createdAt,value
2023-05-13T00:02:08.482Z,10.07
2023-05-13T00:04:36.221Z,9.93
2023-05-13T00:07:03.814Z,10.15
2023-05-13T00:09:31.462Z,9.82
2023-05-13T00:11:58.980Z,9.87
2023-05-13T00:14:26.611Z,9.79
2023-05-13T00:16:54.111Z,9.47
2023-05-13T00:19:21.657Z,9.61
2023-05-13T00:21:49.140Z,9.59
2023-05-13T00:24:16.848Z,9.25
2023-05-13T00:26:44.384Z,9.09
2023-05-13T00:29:12.090Z,9.16
2023-05-13T00:31:39.607Z,9.32
2023-05-13T00:34:07.257Z,9.25
2023-05-13T00:36:34.773Z,9.22
2023-05-13T00:39:02.703Z,9.37
2023-05-13T00:41:30.442Z,9.41
2023-05-13T00:43:58.211Z,9.37
2023-05-13T00:46:26.219Z,9.43
2023-05-13T00:48:54.202Z,9.52
2023-05-13T00:51:21.809Z,9.44
2023-05-13T00:53:51.260Z,9.40
2023-05-13T00:56:22.574Z,9.37
2023-05-13T00:58:50.381Z,9.42
2023-05-13T01:01:52.308Z,9.69
2023-05-13T01:04:34.241Z,9.64
2023-05-13T01:07:09.846Z,9.45
2023-05-13T01:10:09.114Z,9.32
2023-05-13T01:12:46.336Z,9.26
2023-05-13T01:15:20.370Z,9.29
2023-05-13T01:18:06.683Z,9.31
2023-05-13T01:20:35.616Z,9.45
2023-05-13T01:23:04.195Z,9.52
2023-05-13T01:25:31.961Z,9.45
2023-05-13T01:28:00.218Z,9.47
2023-05-13T01:30:28.225Z,9.57
2023-05-13T01:32:56.361Z,9.65
2023-05-13T01:35:25.323Z,9.80
2023-05-13T01:37:53.920Z,10.03
2023-05-13T01:40:31.798Z,10.00
2023-05-13T01:43:02.872Z,10.03
2023-05-13T01:45:31.093Z,10.07
2023-05-13T01:47:59.764Z,9.98
2023-05-13T01:50:33.848Z,9.84
2023-05-13T01:53:01.332Z,9.81
2023-05-13T01:55:28.932Z,9.54
2023-05-13T01:57:56.604Z,9.57
2023-05-13T02:00:24.253Z,9.54
2023-05-13T02:02:51.866Z,9.67
2023-05-13T02:05:19.436Z,9.66
2023-05-13T02:07:47.256Z,9.60
2023-05-13T02:10:14.809Z,9.59
2023-05-13T02:12:42.410Z,9.57
2023-05-13T02:15:10.666Z,9.63
2023-05-13T02:17:38.167Z,9.62
2023-05-13T02:20:07.227Z,9.57
2023-05-13T02:22:36.226Z,9.32
2023-05-13T02:25:05.492Z,9.17
2023-05-13T02:27:33.064Z,9.09
2023-05-13T02:30:00.565Z,9.29
2023-05-13T02:32:28.294Z,9.13
2023-05-13T02:34:55.863Z,9.28
2023-05-13T02:37:23.490Z,9.27
2023-05-13T02:39:59.332Z,9.22
2023-05-13T02:42:27.256Z,9.22
2023-05-13T02:44:55.422Z,9.17
2023-05-13T02:47:24.383Z,9.23
2023-05-13T02:49:52.084Z,9.19
2023-05-13T02:52:19.595Z,9.35
2023-05-13T02:54:47.123Z,9.27
2023-05-13T02:57:16.429Z,8.88
2023-05-13T02:59:44.824Z,8.87
2023-05-13T03:02:12.524Z,8.99
2023-05-13T03:04:41.371Z,9.15
2023-05-13T03:07:08.869Z,9.04
2023-05-13T03:09:39.235Z,8.95
2023-05-13T03:12:08.452Z,8.73
2023-05-13T03:14:37.213Z,8.79
2023-05-13T03:17:05.401Z,8.84
2023-05-13T03:19:37.964Z,9.04
2023-05-13T03:22:06.480Z,9.22
2023-05-13T03:24:34.334Z,9.08
2023-05-13T03:27:02.898Z,9.04
2023-05-13T03:29:31.344Z,9.14
2023-05-13T03:31:59.911Z,9.11
2023-05-13T03:34:27.506Z,9.12
2023-05-13T03:36:55.547Z,9.10
2023-05-13T03:39:23.376Z,9.14
2023-05-13T03:41:50.939Z,9.18
2023-05-13T03:44:18.476Z,9.30
2023-05-13T03:46:45.990Z,9.38
2023-05-13T03:49:13.772Z,9.38
2023-05-13T03:51:41.836Z,9.46
2023-05-13T03:54:10.848Z,9.64
2023-05-13T03:56:40.441Z,9.59
2023-05-13T03:59:08.017Z,9.61
2023-05-13T04:01:36.985Z,9.79
2023-05-13T04:04:05.791Z,9.96
2023-05-13T04:06:33.440Z,9.95
2023-05-13T04:09:02.160Z,10.12
2023-05-13T04:11:29.663Z,10.20
2023-05-13T04:13:58.146Z,10.19
2023-05-13T04:16:25.987Z,10.28
2023-05-13T04:18:53.599Z,10.40
2023-05-13T04:21:21.710Z,10.51
2023-05-13T04:23:49.358Z,10.50
2023-05-13T04:26:17.900Z,10.57
2023-05-13T04:28:45.778Z,10.49
2023-05-13T04:31:13.773Z,10.61
2023-05-13T04:33:42.504Z,10.72
2023-05-13T04:36:10.181Z,10.77
2023-05-13T04:38:38.376Z,10.86
2023-05-13T04:41:06.494Z,11.07
2023-05-13T04:43:41.342Z,11.14
2023-05-13T04:46:08.993Z,11.30
2023-05-13T04:48:36.635Z,11.40
2023-05-13T04:51:04.783Z,11.43
2023-05-13T04:53:32.940Z,11.53
2023-05-13T04:56:03.418Z,11.61
2023-05-13T04:58:31.520Z,11.79
2023-05-13T05:00:59.018Z,12.06
2023-05-13T05:03:26.688Z,12.14
2023-05-13T05:05:54.661Z,12.31
2023-05-13T05:08:24.500Z,12.65
2023-05-13T05:10:52.225Z,12.55
2023-05-13T05:13:20.634Z,12.58
2023-05-13T05:15:48.198Z,12.80
2023-05-13T05:18:15.902Z,13.04
2023-05-13T05:20:46.802Z,13.46
2023-05-13T05:23:17.103Z,13.61
2023-05-13T05:25:45.192Z,13.44
2023-05-13T05:28:15.890Z,13.42
2023-05-13T05:30:44.668Z,13.50
2023-05-13T05:33:42.588Z,13.51
2023-05-13T05:36:10.227Z,13.50
2023-05-13T05:38:37.840Z,13.62
2023-05-13T05:41:06.778Z,13.83
2023-05-13T05:43:34.290Z,14.02
2023-05-13T05:46:01.845Z,14.00
2023-05-13T05:48:29.317Z,14.12
2023-05-13T05:50:57.224Z,14.34
2023-05-13T05:53:32.331Z,14.52
2023-05-13T05:56:01.410Z,14.37
2023-05-13T05:58:29.126Z,14.60
2023-05-13T06:00:58.458Z,14.71
2023-05-13T06:03:26.805Z,15.11
2023-05-13T06:05:55.457Z,14.82
2023-05-13T06:08:29.894Z,14.71
2023-05-13T06:11:00.967Z,14.58
2023-05-13T06:13:28.747Z,14.46
2023-05-13T06:15:56.341Z,14.51
2023-05-13T06:18:24.046Z,14.48
2023-05-13T06:20:51.562Z,14.55
2023-05-13T06:23:19.436Z,14.89
2023-05-13T06:25:48.138Z,14.90
2023-05-13T06:28:15.778Z,15.00
2023-05-13T06:30:44.576Z,15.10
2023-05-13T06:33:12.772Z,15.54
2023-05-13T06:35:40.557Z,15.61
2023-05-13T06:38:10.187Z,15.81
2023-05-13T06:40:37.776Z,15.65
2023-05-13T06:43:06.833Z,15.71
2023-05-13T06:45:38.810Z,15.56
2023-05-13T06:48:06.829Z,15.71
2023-05-13T06:50:34.531Z,16.08
2023-05-13T06:53:02.087Z,16.09
2023-05-13T06:55:29.706Z,16.22
2023-05-13T06:57:58.151Z,16.31
2023-05-13T07:00:28.525Z,16.66
2023-05-13T07:02:56.124Z,16.80
2023-05-13T07:05:24.295Z,16.81
2023-05-13T07:07:53.758Z,16.86
2023-05-13T07:10:21.421Z,16.90
2023-05-13T07:12:49.044Z,17.02
2023-05-13T07:15:19.941Z,17.23
2023-05-13T07:17:47.622Z,17.37
2023-05-13T07:20:15.415Z,17.71
2023-05-13T07:22:42.883Z,17.86
2023-05-13T07:25:10.860Z,17.92
2023-05-13T07:27:38.713Z,18.07
2023-05-13T07:30:07.393Z,18.42
2023-05-13T07:32:37.044Z,18.54
2023-05-13T07:35:05.904Z,18.74
2023-05-13T07:37:33.450Z,19.08
2023-05-13T07:40:01.547Z,18.92
2023-05-13T07:42:30.375Z,18.65
2023-05-13T07:44:57.891Z,18.57
2023-05-13T07:47:25.514Z,18.49
2023-05-13T07:49:53.127Z,18.77
2023-05-13T07:52:20.788Z,18.72
2023-05-13T07:54:49.053Z,19.15
2023-05-13T07:57:16.788Z,18.67
2023-05-13T07:59:44.855Z,18.68
2023-05-13T08:02:13.129Z,18.98
2023-05-13T08:04:40.722Z,18.87
2023-05-13T08:07:11.782Z,18.67
2023-05-13T08:09:39.461Z,18.60
2023-05-13T08:12:07.335Z,18.98
2023-05-13T08:14:34.870Z,19.11
2023-05-13T08:17:04.359Z,19.02
2023-05-13T08:19:31.785Z,18.94
2023-05-13T08:22:01.818Z,19.08
2023-05-13T08:24:29.310Z,19.07
2023-05-13T08:26:56.773Z,19.32
2023-05-13T08:29:24.565Z,19.77
2023-05-13T08:31:53.756Z,20.04
2023-05-13T08:34:21.361Z,19.72
2023-05-13T08:36:48.864Z,20.05
2023-05-13T08:39:16.432Z,20.23
2023-05-13T08:41:45.773Z,20.39
2023-05-13T08:44:13.778Z,20.05
2023-05-13T08:46:47.121Z,19.68
2023-05-13T08:49:14.647Z,19.59
2023-05-13T08:51:44.292Z,19.82
2023-05-13T08:54:12.766Z,20.05
2023-05-13T08:56:40.365Z,19.93
2023-05-13T08:59:08.109Z,19.95
2023-05-13T09:01:35.720Z,20.26
2023-05-13T09:04:08.896Z,20.22
2023-05-13T09:06:36.330Z,20.34
2023-05-13T09:09:06.077Z,20.66
2023-05-13T09:11:34.060Z,21.01
2023-05-13T09:14:05.704Z,20.73
2023-05-13T09:16:33.881Z,20.73
2023-05-13T09:19:04.980Z,20.84
2023-05-13T09:21:38.265Z,20.75
2023-05-13T09:24:21.557Z,20.93
2023-05-13T09:26:51.331Z,21.03
2023-05-13T09:29:25.417Z,20.95
2023-05-13T09:31:55.897Z,21.11
2023-05-13T09:34:32.855Z,21.32
2023-05-13T09:37:03.640Z,21.69
2023-05-13T09:39:34.188Z,21.54
2023-05-13T09:42:04.830Z,21.59
2023-05-13T09:44:34.199Z,21.56
2023-05-13T09:47:03.026Z,22.01
2023-05-13T09:49:33.663Z,22.20
2023-05-13T09:52:01.227Z,22.45
2023-05-13T09:54:36.155Z,22.56
2023-05-13T09:57:06.346Z,22.99
2023-05-13T09:59:35.570Z,23.06
2023-05-13T10:02:28.300Z,23.21
2023-05-13T10:04:57.140Z,23.38
2023-05-13T10:07:25.923Z,23.24
2023-05-13T10:09:58.092Z,23.41
2023-05-13T10:12:27.783Z,23.51
2023-05-13T10:14:56.982Z,23.45
2023-05-13T10:17:26.297Z,23.24
2023-05-13T10:19:55.372Z,23.34
2023-05-13T10:22:34.885Z,23.26
2023-05-13T10:25:05.238Z,23.35
2023-05-13T10:27:34.602Z,23.40
2023-05-13T10:30:09.645Z,23.41
2023-05-13T10:32:42.642Z,23.58
2023-05-13T10:35:17.104Z,23.75
2023-05-13T10:38:21.464Z,23.37
2023-05-13T10:41:26.851Z,23.42
2023-05-13T10:43:59.663Z,23.70
2023-05-13T10:46:27.491Z,23.61
2023-05-13T10:49:01.101Z,23.59
2023-05-13T10:51:28.905Z,23.69
2023-05-13T10:53:59.170Z,23.79
2023-05-13T10:56:29.157Z,23.93
2023-05-13T10:59:02.536Z,24.34
2023-05-13T11:01:35.645Z,24.34
2023-05-13T11:04:05.641Z,24.70
2023-05-13T11:06:39.535Z,24.69
2023-05-13T11:09:12.912Z,24.46
2023-05-13T11:11:41.010Z,24.70
2023-05-13T11:14:19.888Z,24.94
2023-05-13T11:17:02.771Z,24.89
2023-05-13T11:19:33.473Z,25.00
2023-05-13T11:22:12.263Z,24.77
2023-05-13T11:24:40.607Z,24.64
2023-05-13T11:27:17.289Z,24.66
2023-05-13T11:29:56.301Z,25.08
2023-05-13T11:32:58.661Z,24.85
2023-05-13T11:35:33.699Z,25.06
2023-05-13T11:38:06.439Z,24.79
2023-05-13T11:40:37.088Z,24.81
2023-05-13T11:43:05.811Z,24.91
2023-05-13T11:45:40.297Z,25.15
2023-05-13T11:48:26.354Z,24.85
2023-05-13T11:50:58.161Z,24.74
2023-05-13T11:53:25.780Z,25.07
2023-05-13T11:55:53.267Z,24.55
2023-05-13T11:58:22.052Z,24.40
2023-05-13T12:00:49.646Z,24.80
2023-05-13T12:03:19.873Z,25.00
2023-05-13T12:05:49.558Z,25.16
2023-05-13T12:08:17.068Z,25.60
2023-05-13T12:10:45.805Z,25.91
2023-05-13T12:13:13.908Z,25.56
2023-05-13T12:15:42.817Z,24.91
2023-05-13T12:18:10.545Z,24.81
2023-05-13T12:20:38.884Z,25.18
2023-05-13T12:23:06.772Z,25.35
2023-05-13T12:25:48.260Z,25.81
2023-05-13T12:28:19.423Z,25.71
2023-05-13T12:30:59.682Z,25.81
2023-05-13T12:33:29.878Z,25.89
2023-05-13T12:36:16.702Z,26.05
2023-05-13T12:39:03.011Z,26.28
2023-05-13T12:41:36.138Z,26.33
2023-05-13T12:44:07.891Z,26.49
2023-05-13T12:46:36.042Z,26.36
2023-05-13T12:49:06.573Z,26.32
2023-05-13T12:51:34.330Z,26.43
2023-05-13T12:54:02.183Z,26.01
2023-05-13T12:56:29.735Z,26.16
2023-05-13T12:59:00.488Z,25.95
2023-05-13T13:01:28.172Z,25.84
2023-05-13T13:03:55.853Z,25.95
2023-05-13T13:06:23.685Z,26.20
2023-05-13T13:08:51.626Z,26.35
2023-05-13T13:11:19.235Z,26.55
2023-05-13T13:13:48.421Z,26.75
2023-05-13T13:16:17.232Z,26.59
2023-05-13T13:18:47.495Z,26.66
2023-05-13T13:21:14.986Z,26.74
2023-05-13T13:23:42.410Z,26.99
2023-05-13T13:26:09.892Z,26.86
2023-05-13T13:28:37.332Z,27.07
2023-05-13T13:31:05.183Z,26.92
2023-05-13T13:33:32.677Z,27.14
2023-05-13T13:36:00.388Z,26.89
2023-05-13T13:38:27.917Z,26.62
2023-05-13T13:40:55.532Z,26.63
2023-05-13T13:43:23.493Z,27.02
2023-05-13T13:45:51.080Z,26.66
2023-05-13T13:48:18.570Z,26.25
2023-05-13T13:50:47.585Z,26.12
2023-05-13T13:53:15.965Z,25.93
2023-05-13T13:55:43.401Z,25.13
2023-05-13T13:58:10.896Z,25.18
2023-05-13T14:00:39.088Z,25.10
2023-05-13T14:03:06.739Z,25.00
2023-05-13T14:05:34.226Z,25.19
2023-05-13T14:08:01.732Z,25.56
2023-05-13T14:10:29.351Z,25.78
2023-05-13T14:12:57.924Z,25.33
2023-05-13T14:15:28.761Z,25.21
2023-05-13T14:17:57.019Z,25.19
2023-05-13T14:20:25.405Z,25.18
2023-05-13T14:22:52.873Z,25.04
2023-05-13T14:25:20.306Z,25.04
2023-05-13T14:27:47.744Z,25.30
2023-05-13T14:30:15.311Z,25.43
2023-05-13T14:32:47.326Z,25.36
2023-05-13T14:35:16.529Z,25.52
2023-05-13T14:37:46.615Z,25.75
2023-05-13T14:40:14.232Z,25.69
2023-05-13T14:42:41.819Z,25.60
2023-05-13T14:45:13.486Z,25.45
2023-05-13T14:47:42.849Z,25.54
2023-05-13T14:50:12.324Z,25.44
2023-05-13T14:52:39.811Z,25.55
2023-05-13T14:55:07.698Z,25.74
2023-05-13T14:57:35.445Z,25.81
2023-05-13T15:00:04.211Z,25.74
2023-05-13T15:02:31.957Z,25.66
2023-05-13T15:04:59.641Z,25.69
2023-05-13T15:07:27.140Z,25.76
2023-05-13T15:09:55.612Z,25.86
2023-05-13T15:12:23.175Z,25.93
2023-05-13T15:14:54.570Z,25.93
2023-05-13T15:17:22.595Z,26.11
2023-05-13T15:19:50.376Z,26.23
2023-05-13T15:22:18.665Z,25.93
2023-05-13T15:24:48.557Z,25.77
2023-05-13T15:27:17.187Z,25.54
2023-05-13T15:29:44.587Z,25.34
2023-05-13T15:32:12.138Z,25.07
2023-05-13T15:34:42.812Z,24.95
2023-05-13T15:37:10.398Z,25.05
2023-05-13T15:39:37.952Z,24.77
2023-05-13T15:42:05.759Z,24.45
2023-05-13T15:44:33.556Z,24.40
2023-05-13T15:47:02.050Z,24.32
2023-05-13T15:49:30.181Z,24.52
2023-05-13T15:51:57.858Z,24.27
2023-05-13T15:54:25.359Z,24.38
2023-05-13T15:56:53.021Z,24.04
2023-05-13T15:59:20.677Z,23.60
2023-05-13T16:01:48.209Z,23.52
2023-05-13T16:04:16.289Z,23.31
2023-05-13T16:06:44.517Z,23.20
2023-05-13T16:09:12.010Z,23.41
2023-05-13T16:11:39.481Z,23.16
2023-05-13T16:14:08.772Z,23.33
2023-05-13T16:16:36.374Z,23.12
2023-05-13T16:19:04.104Z,23.21
2023-05-13T16:21:32.340Z,23.26
2023-05-13T16:23:59.843Z,22.85
2023-05-13T16:26:27.837Z,22.83
2023-05-13T16:28:55.664Z,22.74
2023-05-13T16:31:23.159Z,22.97
2023-05-13T16:33:51.656Z,22.78
2023-05-13T16:36:19.165Z,22.54
2023-05-13T16:38:47.427Z,22.39
2023-05-13T16:41:15.141Z,22.22
2023-05-13T16:43:44.039Z,22.11
2023-05-13T16:46:11.662Z,22.09
2023-05-13T16:48:39.294Z,22.01
2023-05-13T16:51:06.740Z,21.73
2023-05-13T16:53:36.564Z,21.71
2023-05-13T16:56:04.184Z,21.64
2023-05-13T16:58:33.418Z,21.57
2023-05-13T17:01:09.069Z,21.28
2023-05-13T17:03:39.577Z,21.01
2023-05-13T17:06:10.489Z,20.78
2023-05-13T17:08:39.080Z,20.62
2023-05-13T17:11:07.350Z,20.50
2023-05-13T17:13:34.817Z,20.40
2023-05-13T17:16:02.311Z,20.48
2023-05-13T17:18:30.065Z,20.30
2023-05-13T17:20:57.648Z,20.32
2023-05-13T17:23:26.160Z,20.25
2023-05-13T17:25:53.681Z,20.21
2023-05-13T17:28:21.229Z,20.09
2023-05-13T17:30:50.225Z,19.95
2023-05-13T17:33:21.781Z,19.82
2023-05-13T17:35:51.136Z,19.77
2023-05-13T17:38:18.996Z,19.70
2023-05-13T17:40:46.614Z,19.64
2023-05-13T17:43:14.071Z,19.65
2023-05-13T17:45:42.667Z,19.52
2023-05-13T17:48:10.236Z,19.51
2023-05-13T17:50:38.364Z,19.48
2023-05-13T17:53:07.952Z,19.33
2023-05-13T17:55:35.928Z,19.29
2023-05-13T17:58:04.535Z,19.20
2023-05-13T18:00:41.652Z,19.12
2023-05-13T18:03:14.524Z,19.06
2023-05-13T18:05:43.066Z,19.02
2023-05-13T18:08:12.102Z,18.94
2023-05-13T18:10:39.625Z,18.88
2023-05-13T18:13:09.822Z,18.79
2023-05-13T18:15:48.800Z,18.60
2023-05-13T18:18:19.647Z,18.43
2023-05-13T18:20:47.636Z,18.50
2023-05-13T18:23:16.493Z,18.44
2023-05-13T18:25:55.087Z,18.49
2023-05-13T18:28:23.786Z,18.53
2023-05-13T18:30:52.192Z,18.51
2023-05-13T18:33:23.825Z,18.37
2023-05-13T18:35:54.163Z,18.31
2023-05-13T18:38:22.943Z,18.35
2023-05-13T18:40:51.498Z,18.28
2023-05-13T18:43:19.379Z,18.20
2023-05-13T18:45:50.018Z,18.15
2023-05-13T18:48:21.412Z,17.96
2023-05-13T18:50:49.327Z,18.03
2023-05-13T18:53:17.855Z,18.02
2023-05-13T18:55:46.552Z,18.06
2023-05-13T18:58:20.056Z,17.89
2023-05-13T19:00:49.401Z,17.95
2023-05-13T19:03:19.070Z,17.74
2023-05-13T19:05:47.248Z,17.69
2023-05-13T19:08:15.679Z,17.66
2023-05-13T19:10:44.225Z,17.49
2023-05-13T19:13:13.972Z,17.46
2023-05-13T19:15:44.669Z,17.39
2023-05-13T19:18:12.243Z,17.39
2023-05-13T19:20:42.061Z,17.21
2023-05-13T19:23:09.982Z,17.22
2023-05-13T19:25:44.849Z,17.24
2023-05-13T19:28:13.991Z,17.13
2023-05-13T19:30:44.008Z,17.15
2023-05-13T19:33:11.736Z,17.02
2023-05-13T19:35:44.641Z,16.95
2023-05-13T19:38:14.705Z,16.97
2023-05-13T19:40:47.288Z,16.88
2023-05-13T19:43:15.340Z,16.87
2023-05-13T19:45:43.319Z,16.84
2023-05-13T19:48:10.843Z,16.83
2023-05-13T19:50:39.815Z,16.85
2023-05-13T19:53:11.417Z,16.69
2023-05-13T19:55:39.293Z,16.65
2023-05-13T19:58:07.368Z,16.60
2023-05-13T20:00:34.937Z,16.63
2023-05-13T20:03:02.474Z,16.63
2023-05-13T20:05:30.041Z,16.61
2023-05-13T20:07:57.513Z,16.54
2023-05-13T20:10:25.200Z,16.50
2023-05-13T20:12:54.052Z,16.43
2023-05-13T20:15:22.166Z,16.48
2023-05-13T20:17:49.897Z,16.47
2023-05-13T20:20:17.650Z,16.43
2023-05-13T20:22:45.141Z,16.47
2023-05-13T20:25:15.527Z,16.51
2023-05-13T20:27:43.149Z,16.40
2023-05-13T20:30:14.191Z,16.41
2023-05-13T20:32:43.248Z,16.40
2023-05-13T20:35:10.956Z,16.43
2023-05-13T20:37:38.461Z,16.40
2023-05-13T20:40:07.451Z,16.34
2023-05-13T20:42:34.973Z,16.24
2023-05-13T20:45:02.644Z,16.32
2023-05-13T20:47:35.424Z,16.30
2023-05-13T20:50:03.393Z,16.20
2023-05-13T20:52:32.155Z,16.12
2023-05-13T20:54:59.974Z,16.18
2023-05-13T20:57:27.560Z,16.22
2023-05-13T20:59:55.912Z,16.18
2023-05-13T21:02:23.469Z,16.27
2023-05-13T21:05:03.066Z,16.20
2023-05-13T21:07:34.505Z,16.15
2023-05-13T21:10:04.246Z,16.06
2023-05-13T21:12:34.733Z,16.11
2023-05-13T21:15:03.693Z,16.07
2023-05-13T21:17:37.950Z,16.06
2023-05-13T21:20:26.605Z,16.07
2023-05-13T21:22:58.244Z,16.04
2023-05-13T21:25:27.430Z,16.00
2023-05-13T21:27:54.991Z,16.12
2023-05-13T21:30:23.345Z,16.20
2023-05-13T21:32:51.070Z,16.08
2023-05-13T21:35:19.412Z,16.09
2023-05-13T21:37:47.544Z,16.04
2023-05-13T21:40:16.136Z,15.99
2023-05-13T21:42:45.363Z,16.01
2023-05-13T21:45:15.175Z,16.18
2023-05-13T21:47:42.739Z,16.30
2023-05-13T21:50:11.559Z,16.33
2023-05-13T21:52:42.190Z,16.40
2023-05-13T21:55:10.266Z,16.25
2023-05-13T21:57:37.755Z,16.18
2023-05-13T22:00:10.662Z,16.28
2023-05-13T22:02:44.018Z,16.31
2023-05-13T22:05:12.094Z,16.33
2023-05-13T22:07:39.710Z,16.20
2023-05-13T22:10:08.249Z,16.20
2023-05-13T22:12:36.101Z,16.11
2023-05-13T22:15:03.699Z,16.27
2023-05-13T22:17:31.197Z,16.34
2023-05-13T22:19:58.819Z,16.34
2023-05-13T22:22:26.415Z,16.37
2023-05-13T22:24:53.763Z,16.18
2023-05-13T22:27:21.414Z,16.31
2023-05-13T22:29:48.934Z,16.24
2023-05-13T22:32:16.589Z,16.23
2023-05-13T22:34:44.274Z,16.18
2023-05-13T22:37:11.731Z,16.41
2023-05-13T22:39:39.153Z,16.28
2023-05-13T22:42:07.021Z,16.19
2023-05-13T22:44:35.050Z,16.13
2023-05-13T22:47:02.506Z,16.19
2023-05-13T22:49:29.924Z,16.30
2023-05-13T22:51:57.466Z,16.26
2023-05-13T22:54:24.949Z,16.23
2023-05-13T22:56:52.733Z,16.19
2023-05-13T22:59:20.211Z,16.31
2023-05-13T23:01:47.734Z,16.29
2023-05-13T23:04:15.222Z,16.21
2023-05-13T23:06:42.732Z,15.97
2023-05-13T23:09:10.379Z,15.96
2023-05-13T23:11:37.873Z,16.06
2023-05-13T23:14:05.469Z,16.01
2023-05-13T23:16:32.979Z,15.98
2023-05-13T23:19:00.536Z,15.97
2023-05-13T23:21:28.277Z,16.07
2023-05-13T23:23:55.742Z,16.14
2023-05-13T23:26:24.850Z,16.09
2023-05-13T23:28:52.370Z,16.10
2023-05-13T23:31:19.888Z,16.06
2023-05-13T23:33:47.457Z,16.13
2023-05-13T23:36:17.117Z,16.06
2023-05-13T23:38:44.601Z,16.06
2023-05-13T23:41:11.995Z,15.98
2023-05-13T23:43:39.464Z,15.97
2023-05-13T23:46:07.019Z,15.96
2023-05-13T23:48:34.429Z,16.03
2023-05-13T23:51:02.088Z,16.11
2023-05-13T23:53:29.559Z,16.16
2023-05-13T23:55:57.510Z,16.04
2023-05-13T23:58:25.109Z,16.00
